< < Back
Terminal Aerodrome Forecast


Current Version              Previous Versions:   1  2  3  4  5  6  7  8  9  

Terminal Aerodrome Forecast

710
FTUS44 KMRX 252320
TAFCHA
TAF
KCHA 252320Z 2600/2624 35006KT P6SM BKN150
     FM260200 35003KT P6SM OVC100
     FM260500 34003KT 6SM -RA OVC060
     FM261000 30003KT P6SM SCT080
     FM261400 26006KT P6SM SCT120
     FM262000 20006KT P6SM BKN120=



Latest METAR

085
SAUS80 KWBC 252000 RRH
MTRCHA
METAR KCHA 261953Z 25007KT 10SM FEW150 SCT200 BKN250 12/M06 A3006 RMK
AO2 SLP178 T01171056


USA.gov is the U.S. government's official web portal to all federal, state and local government web resources and services.